createdAt,value
2023-09-14T00:00:52.149Z,3.57
2023-09-14T00:03:19.231Z,3.30
2023-09-14T00:05:48.419Z,3.90
2023-09-14T00:08:15.176Z,3.35
2023-09-14T00:10:41.914Z,3.30
2023-09-14T00:13:09.018Z,2.92
2023-09-14T00:15:36.046Z,3.23
2023-09-14T00:18:03.517Z,3.30
2023-09-14T00:20:33.581Z,3.33
2023-09-14T00:23:00.411Z,3.33
2023-09-14T00:25:27.099Z,3.20
2023-09-14T00:27:54.181Z,3.45
2023-09-14T00:30:21.489Z,3.80
2023-09-14T00:32:50.988Z,3.80
2023-09-14T00:35:17.942Z,3.15
2023-09-14T00:37:44.698Z,3.55
2023-09-14T00:40:11.852Z,3.80
2023-09-14T00:42:42.419Z,3.53
2023-09-14T00:45:10.181Z,3.83
2023-09-14T00:47:37.015Z,3.85
2023-09-14T00:50:05.060Z,4.20
2023-09-14T00:52:32.454Z,4.03
2023-09-14T00:54:59.213Z,4.10
2023-09-14T00:57:25.991Z,4.10
2023-09-14T00:59:52.751Z,4.22
2023-09-14T01:02:19.684Z,4.78
2023-09-14T01:04:46.549Z,4.30
2023-09-14T01:07:16.248Z,4.40
2023-09-14T01:09:42.991Z,4.15
2023-09-14T01:12:10.198Z,4.60
2023-09-14T01:15:02.986Z,4.43
2023-09-14T01:17:44.926Z,4.15
2023-09-14T01:20:21.098Z,4.23
2023-09-14T01:23:00.483Z,4.32
2023-09-14T01:25:46.967Z,4.47
2023-09-14T01:28:14.930Z,4.35
2023-09-14T01:30:43.348Z,4.45
2023-09-14T01:33:12.046Z,4.70
2023-09-14T01:36:28.150Z,4.22
2023-09-14T01:38:55.982Z,5.10
2023-09-14T01:41:23.221Z,4.90
2023-09-14T01:43:51.271Z,4.60
2023-09-14T01:46:18.210Z,4.60
2023-09-14T01:48:45.988Z,4.80
2023-09-14T01:51:13.028Z,4.60
2023-09-14T01:53:39.835Z,4.90
2023-09-14T01:56:06.586Z,4.63
2023-09-14T01:58:35.960Z,5.15
2023-09-14T02:01:03.773Z,3.93
2023-09-14T02:03:31.248Z,3.78
2023-09-14T02:06:00.039Z,3.95
2023-09-14T02:08:31.581Z,3.70
2023-09-14T02:11:01.051Z,3.67
2023-09-14T02:13:29.864Z,3.87
2023-09-14T02:15:56.768Z,3.40
2023-09-14T02:18:23.590Z,3.90
2023-09-14T02:20:50.293Z,3.97
2023-09-14T02:23:18.938Z,3.80
2023-09-14T02:25:46.149Z,3.60
2023-09-14T02:28:14.895Z,3.75
2023-09-14T02:30:42.286Z,3.90
2023-09-14T02:33:09.351Z,3.67
2023-09-14T02:35:36.804Z,3.83
2023-09-14T02:38:04.141Z,4.00
2023-09-14T02:40:31.167Z,3.80
2023-09-14T02:42:57.909Z,4.07
2023-09-14T02:45:26.261Z,3.55
2023-09-14T02:47:53.085Z,3.45
2023-09-14T02:50:19.821Z,3.50
2023-09-14T02:52:46.582Z,3.92
2023-09-14T02:55:14.183Z,4.10
2023-09-14T02:57:41.005Z,3.50
2023-09-14T03:00:09.260Z,3.50
2023-09-14T03:02:36.148Z,3.67
2023-09-14T03:05:03.756Z,3.50
2023-09-14T03:07:30.628Z,3.72
2023-09-14T03:09:57.376Z,3.50
2023-09-14T03:12:24.147Z,3.40
2023-09-14T03:14:50.895Z,3.50
2023-09-14T03:17:18.045Z,3.93
2023-09-14T03:19:44.953Z,3.50
2023-09-14T03:22:12.845Z,3.15
2023-09-14T03:24:39.664Z,3.13
2023-09-14T03:27:06.495Z,3.60
2023-09-14T03:29:33.861Z,3.40
2023-09-14T03:32:01.926Z,3.35
2023-09-14T03:34:29.571Z,3.10
2023-09-14T03:36:56.492Z,3.22
2023-09-14T03:39:23.356Z,3.28
2023-09-14T03:41:50.715Z,3.87
2023-09-14T03:44:17.583Z,3.10
2023-09-14T03:46:45.675Z,3.60
2023-09-14T03:49:12.656Z,3.35
2023-09-14T03:51:39.400Z,3.10
2023-09-14T03:54:07.913Z,3.47
2023-09-14T03:56:36.915Z,3.20
2023-09-14T03:59:03.649Z,3.30
2023-09-14T04:01:30.509Z,3.00
2023-09-14T04:03:57.400Z,3.00
2023-09-14T04:06:24.434Z,3.38
2023-09-14T04:08:51.226Z,3.20
2023-09-14T04:11:17.952Z,3.23
2023-09-14T04:13:44.660Z,3.47
2023-09-14T04:16:12.844Z,3.60
2023-09-14T04:18:42.256Z,3.72
2023-09-14T04:21:09.218Z,3.78
2023-09-14T04:23:36.015Z,3.80
2023-09-14T04:26:05.019Z,3.72
2023-09-14T04:28:33.117Z,3.80
2023-09-14T04:31:02.642Z,3.90
2023-09-14T04:33:31.311Z,3.72
2023-09-14T04:36:02.504Z,3.80
2023-09-14T04:38:30.529Z,4.38
2023-09-14T04:40:57.917Z,4.00
2023-09-14T04:43:25.528Z,4.32
2023-09-14T04:45:52.365Z,4.20
2023-09-14T04:48:19.061Z,3.80
2023-09-14T04:50:45.838Z,3.83
2023-09-14T04:53:12.916Z,3.83
2023-09-14T04:55:39.712Z,3.83
2023-09-14T04:58:07.622Z,4.35
2023-09-14T05:00:35.067Z,4.03
2023-09-14T05:03:06.525Z,4.20
2023-09-14T05:05:33.836Z,3.97
2023-09-14T05:08:02.037Z,3.72
2023-09-14T05:10:29.159Z,3.95
2023-09-14T05:12:56.201Z,4.03
2023-09-14T05:15:23.721Z,4.50
2023-09-14T05:17:51.712Z,4.57
2023-09-14T05:20:19.582Z,4.50
2023-09-14T05:22:46.368Z,4.30
2023-09-14T05:25:13.363Z,4.07
2023-09-14T05:27:41.643Z,3.80
2023-09-14T05:30:11.839Z,3.90
2023-09-14T05:32:40.262Z,4.25
2023-09-14T05:35:10.728Z,4.90
2023-09-14T05:37:37.469Z,4.13
2023-09-14T05:40:13.704Z,3.40
2023-09-14T05:42:42.889Z,3.95
2023-09-14T05:45:11.001Z,4.63
2023-09-14T05:47:37.758Z,3.60
2023-09-14T05:50:05.037Z,4.50
2023-09-14T05:52:32.573Z,3.65
2023-09-14T05:55:00.003Z,3.78
2023-09-14T05:57:29.353Z,3.38
2023-09-14T05:59:56.720Z,3.92
2023-09-14T06:02:23.407Z,6.90
2023-09-14T06:04:50.277Z,8.40
2023-09-14T06:07:17.127Z,9.23
2023-09-14T06:09:44.056Z,8.50
2023-09-14T06:12:10.782Z,9.38
2023-09-14T06:14:38.633Z,9.27
2023-09-14T06:17:05.504Z,7.60
2023-09-14T06:19:32.233Z,7.03
2023-09-14T06:21:59.740Z,5.60
2023-09-14T06:24:26.486Z,8.68
2023-09-14T06:26:53.182Z,9.82
2023-09-14T06:29:19.919Z,11.25
2023-09-14T06:31:46.881Z,8.75
2023-09-14T06:34:13.707Z,11.07
2023-09-14T06:36:40.562Z,11.63
2023-09-14T06:39:07.404Z,10.70
2023-09-14T06:41:34.089Z,9.73
2023-09-14T06:44:04.237Z,10.20
2023-09-14T06:46:30.961Z,10.03
2023-09-14T06:48:57.726Z,9.95
2023-09-14T06:51:24.828Z,10.85
2023-09-14T06:53:52.634Z,10.02
2023-09-14T06:56:19.394Z,11.25
2023-09-14T06:58:46.439Z,10.30
2023-09-14T07:01:13.347Z,10.15
2023-09-14T07:03:40.272Z,11.70
2023-09-14T07:06:07.255Z,11.50
2023-09-14T07:08:33.999Z,9.70
2023-09-14T07:11:00.825Z,11.13
2023-09-14T07:13:27.609Z,10.85
2023-09-14T07:15:55.352Z,10.57
2023-09-14T07:18:29.193Z,11.05
2023-09-14T07:20:56.475Z,11.07
2023-09-14T07:23:23.374Z,10.73
2023-09-14T07:25:50.309Z,6.93
2023-09-14T07:28:18.110Z,9.32
2023-09-14T07:30:44.994Z,5.65
2023-09-14T07:33:12.176Z,5.27
2023-09-14T07:35:40.964Z,4.60
2023-09-14T07:38:10.939Z,4.97
2023-09-14T07:40:38.452Z,5.13
2023-09-14T07:43:05.274Z,5.35
2023-09-14T07:45:34.738Z,5.72
2023-09-14T07:48:03.825Z,5.35
2023-09-14T07:50:30.543Z,5.60
2023-09-14T07:52:57.455Z,5.60
2023-09-14T07:55:24.878Z,5.88
2023-09-14T07:57:51.758Z,5.43
2023-09-14T08:00:18.546Z,5.60
2023-09-14T08:02:45.295Z,5.90
2023-09-14T08:05:12.166Z,5.97
2023-09-14T08:07:39.120Z,5.80
2023-09-14T08:10:06.617Z,6.10
2023-09-14T08:12:33.335Z,5.77
2023-09-14T08:15:00.981Z,5.67
2023-09-14T08:17:28.849Z,6.40
2023-09-14T08:19:55.541Z,6.63
2023-09-14T08:22:24.302Z,6.32
2023-09-14T08:24:51.346Z,6.10
2023-09-14T08:27:18.145Z,5.95
2023-09-14T08:29:45.268Z,5.90
2023-09-14T08:32:14.706Z,6.40
2023-09-14T08:34:41.451Z,6.35
2023-09-14T08:37:09.342Z,6.95
2023-09-14T08:39:37.252Z,6.63
2023-09-14T08:42:04.328Z,7.00
2023-09-14T08:44:34.474Z,7.22
2023-09-14T08:47:02.299Z,6.00
2023-09-14T08:49:29.618Z,5.65
2023-09-14T08:51:56.966Z,5.90
2023-09-14T08:54:24.477Z,5.95
2023-09-14T08:56:52.530Z,5.93
2023-09-14T08:59:22.086Z,5.85
2023-09-14T09:01:51.885Z,6.25
2023-09-14T09:04:18.824Z,6.55
2023-09-14T09:06:45.712Z,6.80
2023-09-14T09:09:12.420Z,6.45
2023-09-14T09:11:39.452Z,6.10
2023-09-14T09:14:06.151Z,6.45
2023-09-14T09:16:33.194Z,6.78
2023-09-14T09:19:11.616Z,5.93
2023-09-14T09:21:39.088Z,6.30
2023-09-14T09:24:07.236Z,6.72
2023-09-14T09:26:37.321Z,6.33
2023-09-14T09:29:24.487Z,5.57
2023-09-14T09:31:52.343Z,6.10
2023-09-14T09:34:25.879Z,5.90
2023-09-14T09:36:56.568Z,6.25
2023-09-14T09:39:23.340Z,6.20
2023-09-14T09:41:50.065Z,5.68
2023-09-14T09:44:17.952Z,5.43
2023-09-14T09:46:44.717Z,5.95
2023-09-14T09:49:21.793Z,5.40
2023-09-14T09:51:50.571Z,5.30
2023-09-14T09:54:21.123Z,5.28
2023-09-14T09:56:47.824Z,5.60
2023-09-14T09:59:15.809Z,6.25
2023-09-14T10:01:46.896Z,6.05
2023-09-14T10:04:15.229Z,6.00
2023-09-14T10:06:42.289Z,5.72
2023-09-14T10:09:10.121Z,5.80
2023-09-14T10:11:36.960Z,5.80
2023-09-14T10:14:06.310Z,5.75
2023-09-14T10:16:43.081Z,5.43
2023-09-14T10:19:09.913Z,5.75
2023-09-14T10:21:43.396Z,5.63
2023-09-14T10:24:10.736Z,5.20
2023-09-14T10:26:40.900Z,4.80
2023-09-14T10:29:08.194Z,5.13
2023-09-14T10:31:38.075Z,5.00
2023-09-14T10:34:05.050Z,5.33
2023-09-14T10:36:33.429Z,5.53
2023-09-14T10:39:00.889Z,5.78
2023-09-14T10:41:27.807Z,5.80
2023-09-14T10:43:55.142Z,5.68
2023-09-14T10:46:25.083Z,5.35
2023-09-14T10:48:51.825Z,5.57
2023-09-14T10:51:19.206Z,4.88
2023-09-14T10:53:46.210Z,5.23
2023-09-14T10:56:23.637Z,4.90
2023-09-14T10:58:52.261Z,5.10
2023-09-14T11:01:44.329Z,4.82
2023-09-14T11:04:20.790Z,4.93
2023-09-14T11:06:50.441Z,4.88
2023-09-14T11:09:19.330Z,4.70
2023-09-14T11:11:47.494Z,4.00
2023-09-14T11:14:16.033Z,4.80
2023-09-14T11:16:53.038Z,4.65
2023-09-14T11:19:47.774Z,4.70
2023-09-14T11:22:19.657Z,4.40
2023-09-14T11:24:50.014Z,4.93
2023-09-14T11:27:22.196Z,4.75
2023-09-14T11:29:51.610Z,5.32
2023-09-14T11:32:25.069Z,5.03
2023-09-14T11:34:56.447Z,4.78
2023-09-14T11:37:25.006Z,4.40
2023-09-14T11:39:58.202Z,4.57
2023-09-14T11:42:29.868Z,4.30
2023-09-14T11:45:06.215Z,5.10
2023-09-14T11:47:35.553Z,4.60
2023-09-14T11:50:08.373Z,4.50
2023-09-14T11:52:35.910Z,4.68
2023-09-14T11:55:02.779Z,4.57
2023-09-14T11:57:30.060Z,4.60
2023-09-14T11:59:57.028Z,4.70
2023-09-14T12:02:23.941Z,4.55
2023-09-14T12:04:52.192Z,4.53
2023-09-14T12:07:22.794Z,4.20
2023-09-14T12:09:50.282Z,4.30
2023-09-14T12:12:30.240Z,4.23
2023-09-14T12:15:01.538Z,4.30
2023-09-14T12:17:29.296Z,4.28
2023-09-14T12:19:57.670Z,4.40
2023-09-14T12:22:25.509Z,4.60
2023-09-14T12:24:52.364Z,4.38
2023-09-14T12:27:19.368Z,4.95
2023-09-14T12:29:46.753Z,3.97
2023-09-14T12:32:13.732Z,4.10
2023-09-14T12:34:40.588Z,4.60
2023-09-14T12:37:07.455Z,3.80
2023-09-14T12:39:34.650Z,4.20
2023-09-14T12:42:02.564Z,3.97
2023-09-14T12:44:29.299Z,4.10
2023-09-14T12:46:56.000Z,4.10
2023-09-14T12:49:24.802Z,3.30
2023-09-14T12:51:51.803Z,3.40
2023-09-14T12:54:27.607Z,3.70
2023-09-14T12:56:54.346Z,3.35
2023-09-14T12:59:21.663Z,3.05
2023-09-14T13:01:49.403Z,3.20
2023-09-14T13:04:17.030Z,3.00
2023-09-14T13:06:43.952Z,3.27
2023-09-14T13:09:19.763Z,2.80
2023-09-14T13:11:51.429Z,3.20
2023-09-14T13:14:22.853Z,3.50
2023-09-14T13:16:59.193Z,3.00
2023-09-14T13:19:27.151Z,3.40
2023-09-14T13:21:54.837Z,3.33
2023-09-14T13:24:21.687Z,3.33
2023-09-14T13:26:48.626Z,3.23
2023-09-14T13:29:18.578Z,3.50
2023-09-14T13:31:46.929Z,3.40
2023-09-14T13:34:13.955Z,3.42
2023-09-14T13:36:40.736Z,3.03
2023-09-14T13:39:09.107Z,2.83
2023-09-14T13:41:35.911Z,3.00
2023-09-14T13:44:04.082Z,3.30
2023-09-14T13:46:30.873Z,3.35
2023-09-14T13:48:58.833Z,3.00
2023-09-14T13:51:25.799Z,3.00
2023-09-14T13:53:52.648Z,3.17
2023-09-14T13:56:20.112Z,2.67
2023-09-14T13:58:47.188Z,3.13
2023-09-14T14:01:14.239Z,3.25
2023-09-14T14:03:41.243Z,3.15
2023-09-14T14:06:08.507Z,3.20
2023-09-14T14:08:35.203Z,3.00
2023-09-14T14:11:01.918Z,3.38
2023-09-14T14:13:28.653Z,2.93
2023-09-14T14:15:55.519Z,3.10
2023-09-14T14:18:22.403Z,3.22
2023-09-14T14:20:49.813Z,3.50
2023-09-14T14:23:16.595Z,3.35
2023-09-14T14:25:45.258Z,3.60
2023-09-14T14:28:11.981Z,3.37
2023-09-14T14:30:38.844Z,3.47
2023-09-14T14:33:05.761Z,3.53
2023-09-14T14:35:32.629Z,3.17
2023-09-14T14:37:59.406Z,3.25
2023-09-14T14:40:58.542Z,3.45
2023-09-14T14:43:13.194Z,3.53
2023-09-14T14:45:40.034Z,3.63
2023-09-14T14:48:07.103Z,3.60
2023-09-14T14:50:33.949Z,3.20
2023-09-14T14:53:00.993Z,3.60
2023-09-14T14:55:28.218Z,3.55
2023-09-14T14:57:55.444Z,3.38
2023-09-14T15:00:23.148Z,3.40
2023-09-14T15:02:50.467Z,3.55
2023-09-14T15:05:17.523Z,3.50
2023-09-14T15:07:44.277Z,3.40
2023-09-14T15:10:11.610Z,3.40
2023-09-14T15:12:38.552Z,4.00
2023-09-14T15:15:06.408Z,3.60
2023-09-14T15:17:35.104Z,3.55
2023-09-14T15:20:02.641Z,3.47
2023-09-14T15:22:29.832Z,3.88
2023-09-14T15:24:56.901Z,3.63
2023-09-14T15:27:24.173Z,3.80
2023-09-14T15:29:52.299Z,3.90
2023-09-14T15:32:19.776Z,4.07
2023-09-14T15:34:48.235Z,4.00
2023-09-14T15:37:15.660Z,3.45
2023-09-14T15:39:43.254Z,4.20
2023-09-14T15:42:10.325Z,3.73
2023-09-14T15:44:41.754Z,3.72
2023-09-14T15:47:09.827Z,4.05
2023-09-14T15:49:37.965Z,4.53
2023-09-14T15:52:05.902Z,3.60
2023-09-14T15:54:33.979Z,3.70
2023-09-14T15:57:01.122Z,3.67
2023-09-14T15:59:28.435Z,3.40
2023-09-14T16:01:55.429Z,3.55
2023-09-14T16:04:24.910Z,3.28
2023-09-14T16:06:52.591Z,4.15
2023-09-14T16:09:20.103Z,3.90
2023-09-14T16:11:50.816Z,4.32
2023-09-14T16:14:18.056Z,4.63
2023-09-14T16:16:48.253Z,4.72
2023-09-14T16:19:17.392Z,4.85
2023-09-14T16:21:45.176Z,4.77
2023-09-14T16:24:12.519Z,5.00
2023-09-14T16:26:40.291Z,5.00
2023-09-14T16:29:07.773Z,5.20
2023-09-14T16:31:35.583Z,5.28
2023-09-14T16:34:04.452Z,4.95
2023-09-14T16:36:31.352Z,5.57
2023-09-14T16:39:07.819Z,5.20
2023-09-14T16:41:38.950Z,5.07
2023-09-14T16:44:07.049Z,4.72
2023-09-14T16:46:35.350Z,4.60
2023-09-14T16:49:25.618Z,4.90
2023-09-14T16:51:53.765Z,4.10
2023-09-14T16:54:21.844Z,4.20
2023-09-14T16:56:50.571Z,4.22
2023-09-14T16:59:20.729Z,3.75
2023-09-14T17:01:48.470Z,4.10
2023-09-14T17:04:16.510Z,3.83
2023-09-14T17:06:43.692Z,3.75
2023-09-14T17:09:10.948Z,3.88
2023-09-14T17:11:38.358Z,4.40
2023-09-14T17:14:07.524Z,4.20
2023-09-14T17:16:36.152Z,4.20
2023-09-14T17:19:04.074Z,4.50
2023-09-14T17:21:33.054Z,4.40
2023-09-14T17:24:00.207Z,4.25
2023-09-14T17:26:27.477Z,3.92
2023-09-14T17:28:56.208Z,3.70
2023-09-14T17:31:24.520Z,3.83
2023-09-14T17:33:51.940Z,4.22
2023-09-14T17:36:19.288Z,4.03
2023-09-14T17:38:48.264Z,4.10
2023-09-14T17:41:15.422Z,4.10
2023-09-14T17:43:42.707Z,4.03
2023-09-14T17:46:09.867Z,4.40
2023-09-14T17:48:37.785Z,3.83
2023-09-14T17:51:05.079Z,3.92
2023-09-14T17:53:34.392Z,3.80
2023-09-14T17:56:03.312Z,4.18
2023-09-14T17:58:31.117Z,4.63
2023-09-14T18:00:59.357Z,4.05
2023-09-14T18:03:27.245Z,3.85
2023-09-14T18:05:54.530Z,4.67
2023-09-14T18:08:24.226Z,6.10
2023-09-14T18:10:52.400Z,4.85
2023-09-14T18:13:19.923Z,4.57
2023-09-14T18:15:48.063Z,4.85
2023-09-14T18:18:16.148Z,4.33
2023-09-14T18:20:43.890Z,4.68
2023-09-14T18:23:11.563Z,5.38
2023-09-14T18:25:41.073Z,5.25
2023-09-14T18:28:09.589Z,4.97
2023-09-14T18:30:37.036Z,4.87
2023-09-14T18:33:04.849Z,5.03
2023-09-14T18:35:31.698Z,4.78
2023-09-14T18:38:02.131Z,4.93
2023-09-14T18:40:29.534Z,4.50
2023-09-14T18:42:58.713Z,4.30
2023-09-14T18:45:26.315Z,4.30
2023-09-14T18:47:57.900Z,4.40
2023-09-14T18:50:28.143Z,4.20
2023-09-14T18:52:56.830Z,4.68
2023-09-14T18:55:26.043Z,4.25
2023-09-14T18:57:54.170Z,4.33
2023-09-14T19:00:23.338Z,4.35
2023-09-14T19:02:50.933Z,3.97
2023-09-14T19:05:22.388Z,4.00
2023-09-14T19:07:50.041Z,3.88
2023-09-14T19:10:19.243Z,3.87
2023-09-14T19:12:47.012Z,4.13
2023-09-14T19:15:17.232Z,4.03
2023-09-14T19:17:45.475Z,4.20
2023-09-14T19:20:14.910Z,4.25
2023-09-14T19:22:44.446Z,4.07
2023-09-14T19:25:12.847Z,4.28
2023-09-14T19:27:41.674Z,3.83
2023-09-14T19:30:10.358Z,4.45
2023-09-14T19:32:41.463Z,4.65
2023-09-14T19:35:11.038Z,4.30
2023-09-14T19:37:42.370Z,4.05
2023-09-14T19:40:11.679Z,4.15
2023-09-14T19:42:39.960Z,4.60
2023-09-14T19:45:08.047Z,4.50
2023-09-14T19:47:41.226Z,4.90
2023-09-14T19:50:09.646Z,5.00
2023-09-14T19:52:38.943Z,4.80
2023-09-14T19:55:06.464Z,4.65
2023-09-14T19:57:38.231Z,4.93
2023-09-14T20:00:10.663Z,5.37
2023-09-14T20:02:38.052Z,4.55
2023-09-14T20:05:08.248Z,4.60
2023-09-14T20:07:38.075Z,4.80
2023-09-14T20:10:09.063Z,4.93
2023-09-14T20:12:37.416Z,5.07
2023-09-14T20:15:07.904Z,5.03
2023-09-14T20:17:35.315Z,4.78
2023-09-14T20:20:06.933Z,4.72
2023-09-14T20:22:34.228Z,4.43
2023-09-14T20:25:01.253Z,4.43
2023-09-14T20:27:30.420Z,4.77
2023-09-14T20:29:57.870Z,3.90
2023-09-14T20:35:10.132Z,4.38
2023-09-14T20:37:37.701Z,4.32
2023-09-14T20:40:11.268Z,4.53
2023-09-14T20:42:39.677Z,4.55
2023-09-14T20:45:12.855Z,4.55
2023-09-14T20:47:40.652Z,4.45
2023-09-14T20:50:15.030Z,3.80
2023-09-14T20:52:43.069Z,4.70
2023-09-14T20:55:13.671Z,4.32
2023-09-14T20:57:44.272Z,4.80
2023-09-14T21:00:13.023Z,4.72
2023-09-14T21:02:40.018Z,4.95
2023-09-14T21:05:09.371Z,5.50
2023-09-14T21:07:36.469Z,4.55
2023-09-14T21:10:05.410Z,5.07
2023-09-14T21:12:32.854Z,5.00
2023-09-14T21:14:59.555Z,4.70
2023-09-14T21:17:26.255Z,4.40
2023-09-14T21:19:58.544Z,4.93
2023-09-14T21:22:25.600Z,4.43
2023-09-14T21:24:52.557Z,3.90
2023-09-14T21:27:22.327Z,3.30
2023-09-14T21:29:49.357Z,3.50
2023-09-14T21:32:16.234Z,3.85
2023-09-14T21:34:43.775Z,4.90
2023-09-14T21:37:10.979Z,4.88
2023-09-14T21:39:37.873Z,4.50
2023-09-14T21:42:05.153Z,5.40
2023-09-14T21:44:31.909Z,5.28
2023-09-14T21:47:03.477Z,5.15
2023-09-14T21:49:38.053Z,5.28
2023-09-14T21:52:05.622Z,5.35
2023-09-14T21:54:38.882Z,4.90
2023-09-14T21:57:07.284Z,5.07
2023-09-14T21:59:34.820Z,5.22
2023-09-14T22:02:02.756Z,5.53
2023-09-14T22:04:29.863Z,4.90
2023-09-14T22:06:56.720Z,4.82
2023-09-14T22:09:23.592Z,4.70
2023-09-14T22:11:50.290Z,3.85
2023-09-14T22:14:17.044Z,3.45
2023-09-14T22:16:43.825Z,3.95
2023-09-14T22:19:10.721Z,4.38
2023-09-14T22:21:37.756Z,4.47
2023-09-14T22:24:05.412Z,4.45
2023-09-14T22:26:33.723Z,4.32
2023-09-14T22:29:00.467Z,4.60
2023-09-14T22:31:27.416Z,4.40
2023-09-14T22:33:54.297Z,4.03
2023-09-14T22:36:22.171Z,4.15
2023-09-14T22:38:49.482Z,4.63
2023-09-14T22:41:16.804Z,4.45
2023-09-14T22:43:43.605Z,4.22
2023-09-14T22:46:13.334Z,3.67
2023-09-14T22:48:41.856Z,4.10
2023-09-14T22:51:21.431Z,4.10
2023-09-14T22:53:48.947Z,3.80
2023-09-14T22:56:16.375Z,3.75
2023-09-14T22:58:47.496Z,3.70
2023-09-14T23:01:16.269Z,3.67
2023-09-14T23:03:43.799Z,4.00
2023-09-14T23:06:13.670Z,3.38
2023-09-14T23:08:43.513Z,3.00
2023-09-14T23:11:20.845Z,3.20
2023-09-14T23:13:48.990Z,3.28
2023-09-14T23:16:16.850Z,3.35
2023-09-14T23:18:43.729Z,2.97
2023-09-14T23:21:13.800Z,3.10
2023-09-14T23:23:40.564Z,3.63
2023-09-14T23:26:07.742Z,3.30
2023-09-14T23:28:37.294Z,3.20
2023-09-14T23:31:07.365Z,3.72
2023-09-14T23:33:35.706Z,3.22
2023-09-14T23:36:08.749Z,3.27
2023-09-14T23:38:37.525Z,3.33
2023-09-14T23:41:05.447Z,3.40
2023-09-14T23:43:32.941Z,3.25
2023-09-14T23:46:00.437Z,3.60
2023-09-14T23:48:27.458Z,3.57
2023-09-14T23:50:54.899Z,3.10
2023-09-14T23:53:24.556Z,3.28
2023-09-14T23:55:51.348Z,3.55
2023-09-14T23:58:18.846Z,3.08
